createdAt,value
2023-04-16T00:00:08.954Z,7.5
2023-04-16T00:01:17.299Z,7.5
2023-04-16T00:02:25.925Z,7.4
2023-04-16T00:03:34.317Z,7.4
2023-04-16T00:04:42.695Z,7.4
2023-04-16T00:05:51.081Z,7.6
2023-04-16T00:06:59.411Z,7.6
2023-04-16T00:08:07.753Z,7.6
2023-04-16T00:09:16.302Z,7.4
2023-04-16T00:10:24.666Z,7.4
2023-04-16T00:11:32.985Z,7.4
2023-04-16T00:12:41.536Z,7.3
2023-04-16T00:13:49.885Z,7.3
2023-04-16T00:14:58.206Z,7.3
2023-04-16T00:16:06.752Z,7.1
2023-04-16T00:17:15.085Z,7.1
2023-04-16T00:18:23.436Z,7.1
2023-04-16T00:19:31.990Z,7.7
2023-04-16T00:20:40.323Z,7.7
2023-04-16T00:21:48.661Z,7.7
2023-04-16T00:22:57.220Z,9
2023-04-16T00:24:05.548Z,9
2023-04-16T00:25:13.890Z,9
2023-04-16T00:26:22.584Z,7.8
2023-04-16T00:27:30.801Z,7.8
2023-04-16T00:28:39.148Z,7.8
2023-04-16T00:29:47.691Z,8.4
2023-04-16T00:30:56.069Z,8.4
2023-04-16T00:32:04.369Z,8.4
2023-04-16T00:33:12.926Z,9.7
2023-04-16T00:34:21.259Z,9.7
2023-04-16T00:35:29.597Z,9.7
2023-04-16T00:36:38.142Z,8
2023-04-16T00:37:46.474Z,8
2023-04-16T00:38:54.832Z,8
2023-04-16T00:40:03.375Z,7.9
2023-04-16T00:41:11.696Z,7.9
2023-04-16T00:42:20.064Z,7.9
2023-04-16T00:43:28.599Z,7.7
2023-04-16T00:44:36.932Z,7.7
2023-04-16T00:45:45.302Z,7.7
2023-04-16T00:46:53.830Z,6.8
2023-04-16T00:48:02.196Z,6.8
2023-04-16T00:49:10.707Z,6.8
2023-04-16T00:50:19.058Z,5.9
2023-04-16T00:51:27.395Z,5.9
2023-04-16T00:52:35.725Z,5.9
2023-04-16T00:53:44.289Z,6.7
2023-04-16T00:54:52.627Z,6.7
2023-04-16T00:56:00.955Z,6.7
2023-04-16T00:57:09.500Z,6.6
2023-04-16T00:58:17.885Z,6.6
2023-04-16T00:59:26.180Z,6.6
2023-04-16T01:00:34.720Z,6.4
2023-04-16T01:01:43.084Z,6.4
2023-04-16T01:02:51.504Z,6.4
2023-04-16T01:04:00.023Z,6.9
2023-04-16T01:05:08.305Z,6.9
2023-04-16T01:06:16.630Z,6.9
2023-04-16T01:07:25.196Z,6.6
2023-04-16T01:08:33.549Z,6.6
2023-04-16T01:09:41.889Z,6.6
2023-04-16T01:10:50.441Z,5.8
2023-04-16T01:11:58.788Z,5.8
2023-04-16T01:13:07.149Z,5.8
2023-04-16T01:14:15.726Z,5.7
2023-04-16T01:15:24.034Z,5.7
2023-04-16T01:16:32.396Z,5.7
2023-04-16T01:17:40.942Z,7.3
2023-04-16T01:18:49.291Z,7.3
2023-04-16T01:19:57.635Z,7.3
2023-04-16T01:21:06.172Z,6.7
2023-04-16T01:22:14.531Z,6.7
2023-04-16T01:23:22.880Z,6.7
2023-04-16T01:24:31.423Z,6.4
2023-04-16T01:25:39.784Z,6.4
2023-04-16T01:26:48.108Z,6.4
2023-04-16T01:27:56.645Z,6.3
2023-04-16T01:29:05.003Z,6.3
2023-04-16T01:30:13.380Z,6.3
2023-04-16T01:31:21.899Z,6.5
2023-04-16T01:32:30.264Z,6.5
2023-04-16T01:33:38.582Z,6.5
2023-04-16T01:34:47.125Z,7.4
2023-04-16T01:35:55.465Z,7.4
2023-04-16T01:37:03.809Z,7.4
2023-04-16T01:38:12.381Z,6.5
2023-04-16T01:39:20.705Z,6.5
2023-04-16T01:40:29.040Z,6.5
2023-04-16T01:41:37.617Z,7.7
2023-04-16T01:42:45.934Z,7.7
2023-04-16T01:43:54.265Z,7.7
2023-04-16T01:45:02.796Z,7.5
2023-04-16T01:46:11.173Z,7.5
2023-04-16T01:47:19.476Z,7.5
2023-04-16T01:48:28.033Z,6.7
2023-04-16T01:49:36.350Z,6.7
2023-04-16T01:50:44.692Z,6.7
2023-04-16T01:51:53.263Z,8.2
2023-04-16T01:53:01.626Z,8.2
2023-04-16T01:54:09.947Z,8.2
2023-04-16T01:55:18.493Z,8.1
2023-04-16T01:56:26.834Z,8.1
2023-04-16T01:57:35.185Z,8.1
2023-04-16T01:58:43.758Z,7.9
2023-04-16T01:59:52.102Z,7.9
2023-04-16T02:01:00.537Z,7.9
2023-04-16T02:02:09.133Z,7.5
2023-04-16T02:03:17.456Z,7.5
2023-04-16T02:04:25.704Z,7.5
2023-04-16T02:05:34.263Z,6.5
2023-04-16T02:06:42.597Z,6.5
2023-04-16T02:07:50.947Z,6.5
2023-04-16T02:08:59.496Z,7.6
2023-04-16T02:10:07.835Z,7.6
2023-04-16T02:11:16.174Z,7.6
2023-04-16T02:12:24.736Z,7.7
2023-04-16T02:13:33.074Z,7.7
2023-04-16T02:14:41.443Z,7.7
2023-04-16T02:15:49.993Z,7.2
2023-04-16T02:16:58.330Z,7.2
2023-04-16T02:18:06.740Z,7.2
2023-04-16T02:19:15.255Z,6.8
2023-04-16T02:20:23.583Z,6.8
2023-04-16T02:21:31.930Z,6.8
2023-04-16T02:22:40.487Z,6.6
2023-04-16T02:23:48.841Z,6.6
2023-04-16T02:24:57.175Z,6.6
2023-04-16T02:26:05.724Z,6.7
2023-04-16T02:27:14.060Z,6.7
2023-04-16T02:28:22.407Z,6.7
2023-04-16T02:29:30.988Z,7.3
2023-04-16T02:30:39.329Z,7.3
2023-04-16T02:31:47.675Z,7.3
2023-04-16T02:32:56.245Z,6.4
2023-04-16T02:34:04.602Z,6.4
2023-04-16T02:35:12.950Z,6.4
2023-04-16T02:36:21.486Z,6.9
2023-04-16T02:37:29.834Z,6.9
2023-04-16T02:38:38.178Z,6.9
2023-04-16T02:39:46.719Z,11.5
2023-04-16T02:40:55.078Z,11.5
2023-04-16T02:42:03.413Z,11.5
2023-04-16T02:43:11.947Z,5.7
2023-04-16T02:44:20.286Z,5.7
2023-04-16T02:45:28.636Z,5.7
2023-04-16T02:46:37.173Z,6.1
2023-04-16T02:47:45.546Z,6.1
2023-04-16T02:48:53.868Z,6.1
2023-04-16T02:50:02.461Z,7.8
2023-04-16T02:51:10.762Z,7.8
2023-04-16T02:52:19.114Z,7.8
2023-04-16T02:53:27.657Z,6.2
2023-04-16T02:54:36.001Z,6.2
2023-04-16T02:55:44.493Z,6.2
2023-04-16T02:56:53.030Z,6.7
2023-04-16T02:58:01.505Z,6.7
2023-04-16T02:59:09.867Z,6.7
2023-04-16T03:00:18.302Z,7.1
2023-04-16T03:01:26.688Z,7.1
2023-04-16T03:02:35.165Z,7.1
2023-04-16T03:03:43.599Z,7.1
2023-04-16T03:04:51.928Z,7.1
2023-04-16T03:06:00.297Z,7.1
2023-04-16T03:07:08.806Z,6.7
2023-04-16T03:08:17.170Z,6.7
2023-04-16T03:09:25.521Z,6.7
2023-04-16T03:10:34.044Z,7.1
2023-04-16T03:11:42.378Z,7.1
2023-04-16T03:12:50.714Z,7.1
2023-04-16T03:13:59.263Z,7.4
2023-04-16T03:15:07.954Z,7.4
2023-04-16T03:16:16.363Z,7.4
2023-04-16T03:17:24.859Z,4.9
2023-04-16T03:18:33.209Z,4.9
2023-04-16T03:19:41.559Z,4.9
2023-04-16T03:20:50.091Z,4
2023-04-16T03:21:58.480Z,4
2023-04-16T03:23:06.789Z,4
2023-04-16T03:24:15.346Z,3.6
2023-04-16T03:25:23.680Z,3.6
2023-04-16T03:26:32.036Z,3.6
2023-04-16T03:27:40.580Z,4.2
2023-04-16T03:28:48.919Z,4.2
2023-04-16T03:29:57.269Z,4.2
2023-04-16T03:31:05.829Z,3.4
2023-04-16T03:32:14.160Z,3.4
2023-04-16T03:33:22.520Z,3.4
2023-04-16T03:34:31.041Z,3.2
2023-04-16T03:35:39.395Z,3.2
2023-04-16T03:36:47.762Z,3.2
2023-04-16T03:37:56.318Z,2.7
2023-04-16T03:39:04.639Z,2.7
2023-04-16T03:40:12.986Z,2.7
2023-04-16T03:41:21.518Z,2.1
2023-04-16T03:42:29.876Z,2.1
2023-04-16T03:43:38.224Z,2.1
2023-04-16T03:44:46.766Z,2.1
2023-04-16T03:45:55.120Z,2.1
2023-04-16T03:47:03.467Z,2.1
2023-04-16T03:48:12.013Z,2.3
2023-04-16T03:49:20.344Z,2.3
2023-04-16T03:50:28.678Z,2.3
2023-04-16T03:51:37.235Z,2.8
2023-04-16T03:52:45.568Z,2.8
2023-04-16T03:53:53.925Z,2.8
2023-04-16T03:55:02.443Z,3
2023-04-16T03:56:10.771Z,3
2023-04-16T03:57:19.124Z,3
2023-04-16T03:58:27.663Z,3.4
2023-04-16T03:59:36.006Z,3.4
2023-04-16T04:00:44.612Z,3.4
2023-04-16T04:01:53.189Z,3.9
2023-04-16T04:03:01.693Z,3.9
2023-04-16T04:04:09.958Z,3.9
2023-04-16T04:05:18.381Z,2.3
2023-04-16T04:06:26.723Z,2.3
2023-04-16T04:07:35.071Z,2.3
2023-04-16T04:08:43.613Z,3
2023-04-16T04:09:51.964Z,3
2023-04-16T04:11:00.280Z,3
2023-04-16T04:12:08.837Z,3.4
2023-04-16T04:13:17.183Z,3.4
2023-04-16T04:14:25.525Z,3.4
2023-04-16T04:15:34.055Z,3.4
2023-04-16T04:16:42.439Z,3.4
2023-04-16T04:17:50.819Z,3.4
2023-04-16T04:18:59.287Z,3.4
2023-04-16T04:20:07.631Z,3.4
2023-04-16T04:21:15.975Z,3.4
2023-04-16T04:22:24.503Z,3.9
2023-04-16T04:23:32.827Z,3.9
2023-04-16T04:24:41.164Z,3.9
2023-04-16T04:25:49.750Z,3.1
2023-04-16T04:26:58.036Z,3.1
2023-04-16T04:28:06.369Z,3.1
2023-04-16T04:29:14.903Z,2.7
2023-04-16T04:30:23.247Z,2.7
2023-04-16T04:31:31.613Z,2.7
2023-04-16T04:32:40.139Z,3
2023-04-16T04:33:48.469Z,3
2023-04-16T04:34:56.802Z,3
2023-04-16T04:36:05.364Z,2
2023-04-16T04:37:13.692Z,2
2023-04-16T04:38:22.060Z,2
2023-04-16T04:39:30.576Z,2.4
2023-04-16T04:40:38.899Z,2.4
2023-04-16T04:41:47.278Z,2.4
2023-04-16T04:42:55.786Z,2.7
2023-04-16T04:44:04.121Z,2.7
2023-04-16T04:45:12.468Z,2.7
2023-04-16T04:46:21.065Z,2.9
2023-04-16T04:47:29.360Z,2.9
2023-04-16T04:48:37.678Z,2.9
2023-04-16T04:49:46.219Z,2.7
2023-04-16T04:50:54.531Z,2.7
2023-04-16T04:52:02.896Z,2.7
2023-04-16T04:53:11.431Z,2.5
2023-04-16T04:54:19.747Z,2.5
2023-04-16T04:55:28.083Z,2.5
2023-04-16T04:56:36.629Z,3.5
2023-04-16T04:57:45.005Z,3.5
2023-04-16T04:58:53.308Z,3.5
2023-04-16T05:00:01.843Z,3.5
2023-04-16T05:01:10.192Z,3.5
2023-04-16T05:02:18.544Z,3.5
2023-04-16T05:03:27.135Z,3.9
2023-04-16T05:04:35.392Z,3.9
2023-04-16T05:05:43.728Z,3.9
2023-04-16T05:06:52.261Z,2.7
2023-04-16T05:08:00.583Z,2.7
2023-04-16T05:09:09.090Z,2.7
2023-04-16T05:10:17.451Z,2.6
2023-04-16T05:11:25.806Z,2.6
2023-04-16T05:12:34.130Z,2.6
2023-04-16T05:13:42.691Z,2.5
2023-04-16T05:14:51.017Z,2.5
2023-04-16T05:15:59.361Z,2.5
2023-04-16T05:17:08.069Z,2.6
2023-04-16T05:18:16.254Z,2.6
2023-04-16T05:19:24.593Z,2.6
2023-04-16T05:20:33.122Z,3.1
2023-04-16T05:21:41.478Z,3.1
2023-04-16T05:22:49.814Z,3.1
2023-04-16T05:23:58.343Z,2
2023-04-16T05:25:06.681Z,2
2023-04-16T05:26:15.023Z,2
2023-04-16T05:27:23.569Z,2.6
2023-04-16T05:28:31.901Z,2.6
2023-04-16T05:29:40.252Z,2.6
2023-04-16T05:30:48.804Z,2.1
2023-04-16T05:31:57.089Z,2.1
2023-04-16T05:33:05.426Z,2.1
2023-04-16T05:34:13.962Z,2.7
2023-04-16T05:35:22.301Z,2.7
2023-04-16T05:36:30.662Z,2.7
2023-04-16T05:37:39.201Z,4.6
2023-04-16T05:38:47.527Z,4.6
2023-04-16T05:39:55.854Z,4.6
2023-04-16T05:41:04.401Z,50.799999
2023-04-16T05:42:12.732Z,50.799999
2023-04-16T05:43:21.053Z,50.799999
2023-04-16T05:44:29.592Z,17.9
2023-04-16T05:45:37.962Z,17.9
2023-04-16T05:46:46.274Z,17.9
2023-04-16T05:47:54.966Z,8.1
2023-04-16T05:49:03.150Z,8.1
2023-04-16T05:50:11.489Z,8.1
2023-04-16T05:51:20.057Z,4.5
2023-04-16T05:52:28.362Z,4.5
2023-04-16T05:53:36.705Z,4.5
2023-04-16T05:54:45.265Z,34.900002
2023-04-16T05:55:53.579Z,34.900002
2023-04-16T05:57:01.901Z,34.900002
2023-04-16T05:58:10.459Z,12.6
2023-04-16T05:59:18.782Z,12.6
2023-04-16T06:00:27.124Z,12.6
2023-04-16T06:01:35.683Z,2.6
2023-04-16T06:02:44.068Z,2.6
2023-04-16T06:03:52.377Z,2.6
2023-04-16T06:05:00.866Z,2.4
2023-04-16T06:06:09.205Z,2.4
2023-04-16T06:07:17.566Z,2.4
2023-04-16T06:08:26.075Z,2.8
2023-04-16T06:09:34.412Z,2.8
2023-04-16T06:10:42.748Z,2.8
2023-04-16T06:11:51.287Z,2.1
2023-04-16T06:12:59.618Z,2.1
2023-04-16T06:14:07.959Z,2.1
2023-04-16T06:15:16.518Z,2.3
2023-04-16T06:16:24.883Z,2.3
2023-04-16T06:17:33.205Z,2.3
2023-04-16T06:18:41.719Z,2.5
2023-04-16T06:19:50.071Z,2.5
2023-04-16T06:20:58.392Z,2.5
2023-04-16T06:22:06.948Z,2.7
2023-04-16T06:23:15.281Z,2.7
2023-04-16T06:24:23.632Z,2.7
2023-04-16T06:25:32.161Z,3.1
2023-04-16T06:26:40.500Z,3.1
2023-04-16T06:27:48.837Z,3.1
2023-04-16T06:28:57.358Z,3.1
2023-04-16T06:30:05.707Z,3.1
2023-04-16T06:31:14.037Z,3.1
2023-04-16T06:32:22.577Z,3.1
2023-04-16T06:33:30.948Z,3.1
2023-04-16T06:34:39.268Z,3.1
2023-04-16T06:35:47.793Z,5.1
2023-04-16T06:36:56.136Z,5.1
2023-04-16T06:38:04.482Z,5.1
2023-04-16T06:39:13.016Z,4
2023-04-16T06:40:21.363Z,4
2023-04-16T06:41:29.686Z,4
2023-04-16T06:42:38.213Z,4.7
2023-04-16T06:43:46.550Z,4.7
2023-04-16T06:44:54.908Z,4.7
2023-04-16T06:46:03.458Z,4.8
2023-04-16T06:47:11.845Z,4.8
2023-04-16T06:48:20.111Z,4.8
2023-04-16T06:49:28.684Z,3.5
2023-04-16T06:50:37.006Z,3.5
2023-04-16T06:51:45.350Z,3.5
2023-04-16T06:52:53.880Z,3
2023-04-16T06:54:02.208Z,3
2023-04-16T06:55:10.551Z,3
2023-04-16T06:56:19.110Z,3.7
2023-04-16T06:57:27.438Z,3.7
2023-04-16T06:58:35.752Z,3.7
2023-04-16T06:59:44.299Z,3.2
2023-04-16T07:00:52.678Z,3.2
2023-04-16T07:02:00.988Z,3.2
2023-04-16T07:03:09.667Z,1.9
2023-04-16T07:04:17.880Z,1.9
2023-04-16T07:05:26.197Z,1.9
2023-04-16T07:06:34.705Z,2.7
2023-04-16T07:07:43.038Z,2.7
2023-04-16T07:08:51.351Z,2.7
2023-04-16T07:09:59.903Z,1.7
2023-04-16T07:11:08.215Z,1.7
2023-04-16T07:12:16.551Z,1.7
2023-04-16T07:13:25.079Z,1.8
2023-04-16T07:14:33.413Z,1.8
2023-04-16T07:15:41.753Z,1.8
2023-04-16T07:16:50.319Z,2.2
2023-04-16T07:17:58.637Z,2.2
2023-04-16T07:19:07.014Z,2.2
2023-04-16T07:20:15.500Z,1.7
2023-04-16T07:21:23.857Z,1.7
2023-04-16T07:22:32.163Z,1.7
2023-04-16T07:23:40.705Z,3.2
2023-04-16T07:24:49.041Z,3.2
2023-04-16T07:25:57.395Z,3.2
2023-04-16T07:27:05.920Z,2.2
2023-04-16T07:28:14.239Z,2.2
2023-04-16T07:29:22.605Z,2.2
2023-04-16T07:30:31.139Z,2
2023-04-16T07:31:39.470Z,2
2023-04-16T07:32:47.848Z,2
2023-04-16T07:33:56.345Z,2.3
2023-04-16T07:35:04.668Z,2.3
2023-04-16T07:36:13.002Z,2.3
2023-04-16T07:37:21.579Z,2.4
2023-04-16T07:38:29.875Z,2.4
2023-04-16T07:39:38.214Z,2.4
2023-04-16T07:40:46.761Z,2
2023-04-16T07:41:55.099Z,2
2023-04-16T07:43:03.425Z,2
2023-04-16T07:44:11.972Z,1.6
2023-04-16T07:45:20.310Z,1.6
2023-04-16T07:46:36.188Z,1.6
2023-04-16T07:47:37.198Z,1.7
2023-04-16T07:48:45.514Z,1.7
2023-04-16T07:49:53.868Z,1.7
2023-04-16T07:51:02.388Z,1.9
2023-04-16T07:52:10.702Z,1.9
2023-04-16T07:53:19.061Z,1.9
2023-04-16T07:54:29.058Z,2.3
2023-04-16T07:55:35.898Z,2.3
2023-04-16T07:56:44.225Z,2.3
2023-04-16T07:57:52.753Z,1.7
2023-04-16T07:59:08.248Z,1.7
2023-04-16T08:00:09.419Z,1.7
2023-04-16T08:01:17.947Z,1.8
2023-04-16T08:02:26.391Z,1.8
2023-04-16T08:03:34.842Z,1.8
2023-04-16T08:04:43.311Z,2.1
2023-04-16T08:05:51.491Z,2.1
2023-04-16T08:06:59.834Z,2.1
2023-04-16T08:08:08.367Z,2.4
2023-04-16T08:09:16.741Z,2.4
2023-04-16T08:10:25.034Z,2.4
2023-04-16T08:11:33.552Z,2.3
2023-04-16T08:12:41.889Z,2.3
2023-04-16T08:13:50.222Z,2.3
2023-04-16T08:14:58.753Z,2.1
2023-04-16T08:16:07.110Z,2.1
2023-04-16T08:17:15.449Z,2.1
2023-04-16T08:18:23.960Z,3.8
2023-04-16T08:19:32.296Z,3.8
2023-04-16T08:20:40.631Z,3.8
2023-04-16T08:21:49.195Z,5.6
2023-04-16T08:22:57.483Z,5.6
2023-04-16T08:24:05.832Z,5.6
2023-04-16T08:25:14.388Z,3.7
2023-04-16T08:26:22.685Z,3.7
2023-04-16T08:27:31.015Z,3.7
2023-04-16T08:28:39.562Z,2.8
2023-04-16T08:29:47.922Z,2.8
2023-04-16T08:30:56.266Z,2.8
2023-04-16T08:32:04.782Z,2.4
2023-04-16T08:33:13.140Z,2.4
2023-04-16T08:34:21.453Z,2.4
2023-04-16T08:35:29.988Z,2
2023-04-16T08:36:38.306Z,2
2023-04-16T08:37:46.627Z,2
2023-04-16T08:38:55.186Z,3.5
2023-04-16T08:40:03.502Z,3.5
2023-04-16T08:41:11.858Z,3.5
2023-04-16T08:42:20.380Z,4.1
2023-04-16T08:43:28.708Z,4.1
2023-04-16T08:44:37.059Z,4.1
2023-04-16T08:45:45.579Z,3.5
2023-04-16T08:46:54.005Z,3.5
2023-04-16T08:48:02.264Z,3.5
2023-04-16T08:49:10.976Z,3.3
2023-04-16T08:50:19.135Z,3.3
2023-04-16T08:51:27.464Z,3.3
2023-04-16T08:52:35.994Z,4.4
2023-04-16T08:53:44.346Z,4.4
2023-04-16T08:54:56.847Z,4.4
2023-04-16T08:56:01.196Z,3.9
2023-04-16T08:57:09.558Z,3.9
2023-04-16T08:58:17.854Z,3.9
2023-04-16T08:59:26.415Z,4.9
2023-04-16T09:00:34.760Z,4.9
2023-04-16T09:01:43.110Z,4.9
2023-04-16T09:02:51.779Z,5.5
2023-04-16T09:04:00.128Z,5.5
2023-04-16T09:05:08.348Z,5.5
2023-04-16T09:06:16.883Z,7.8
2023-04-16T09:07:25.223Z,7.8
2023-04-16T09:08:33.587Z,7.8
2023-04-16T09:09:42.124Z,3.5
2023-04-16T09:10:50.456Z,3.5
2023-04-16T09:11:58.804Z,3.5
2023-04-16T09:13:07.369Z,3
2023-04-16T09:14:15.675Z,3
2023-04-16T09:15:24.023Z,3
2023-04-16T09:16:32.609Z,2.2
2023-04-16T09:17:40.935Z,2.2
2023-04-16T09:18:49.258Z,2.2
2023-04-16T09:19:57.794Z,2.5
2023-04-16T09:21:06.132Z,2.5
2023-04-16T09:22:14.470Z,2.5
2023-04-16T09:23:23.015Z,2
2023-04-16T09:24:31.345Z,2
2023-04-16T09:25:39.681Z,2
2023-04-16T09:26:48.218Z,2.2
2023-04-16T09:27:56.559Z,2.2
2023-04-16T09:29:04.921Z,2.2
2023-04-16T09:30:13.434Z,2.9
2023-04-16T09:31:21.828Z,2.9
2023-04-16T09:32:30.182Z,2.9
2023-04-16T09:33:38.729Z,2.5
2023-04-16T09:34:47.079Z,2.5
2023-04-16T09:35:55.419Z,2.5
2023-04-16T09:37:04.044Z,2.9
2023-04-16T09:38:12.395Z,2.9
2023-04-16T09:39:20.750Z,2.9
2023-04-16T09:40:29.295Z,6
2023-04-16T09:41:37.646Z,6
2023-04-16T09:42:46.031Z,6
2023-04-16T09:43:54.549Z,3.7
2023-04-16T09:45:05.077Z,3.7
2023-04-16T09:46:11.284Z,3.7
2023-04-16T09:47:19.868Z,3.9
2023-04-16T09:48:28.189Z,3.9
2023-04-16T09:49:36.554Z,3.9
2023-04-16T09:50:45.078Z,3.9
2023-04-16T09:51:53.447Z,3.9
2023-04-16T09:53:01.816Z,3.9
2023-04-16T09:54:10.393Z,5
2023-04-16T09:55:18.777Z,5
2023-04-16T09:56:27.135Z,5
2023-04-16T09:57:35.686Z,3.3
2023-04-16T09:58:44.058Z,3.3
2023-04-16T09:59:52.430Z,3.3
2023-04-16T10:01:01.018Z,4.6
2023-04-16T10:02:15.050Z,4.6
2023-04-16T10:03:17.769Z,4.6
2023-04-16T10:04:26.249Z,62.400002
2023-04-16T10:05:34.592Z,62.400002
2023-04-16T10:06:42.994Z,62.400002
2023-04-16T10:07:51.538Z,2.8
2023-04-16T10:08:59.916Z,2.8
2023-04-16T10:10:08.239Z,2.8
2023-04-16T10:11:16.773Z,5.3
2023-04-16T10:12:25.117Z,5.3
2023-04-16T10:13:33.473Z,5.3
2023-04-16T10:14:42.009Z,7.4
2023-04-16T10:15:50.358Z,7.4
2023-04-16T10:16:58.718Z,7.4
2023-04-16T10:18:07.240Z,3.8
2023-04-16T10:19:15.569Z,3.8
2023-04-16T10:20:23.892Z,3.8
2023-04-16T10:21:32.481Z,25.299999
2023-04-16T10:22:40.815Z,25.299999
2023-04-16T10:23:49.153Z,25.299999
2023-04-16T10:24:57.671Z,12
2023-04-16T10:26:06.013Z,12
2023-04-16T10:27:14.339Z,12
2023-04-16T10:28:22.877Z,15.9
2023-04-16T10:29:31.207Z,15.9
2023-04-16T10:30:39.592Z,15.9
2023-04-16T10:31:48.085Z,20.9
2023-04-16T10:32:58.278Z,20.9
2023-04-16T10:34:04.756Z,20.9
2023-04-16T10:35:13.297Z,13
2023-04-16T10:36:21.655Z,13
2023-04-16T10:37:30.043Z,13
2023-04-16T10:38:38.632Z,16.1
2023-04-16T10:39:46.958Z,16.1
2023-04-16T10:40:55.425Z,16.1
2023-04-16T10:42:03.949Z,26.1
2023-04-16T10:43:12.384Z,26.1
2023-04-16T10:44:20.742Z,26.1
2023-04-16T10:45:29.283Z,27.6
2023-04-16T10:46:37.762Z,27.6
2023-04-16T10:47:46.130Z,27.6
2023-04-16T10:48:54.658Z,22.9
2023-04-16T10:50:02.976Z,22.9
2023-04-16T10:51:11.285Z,22.9
2023-04-16T10:52:19.840Z,18.299999
2023-04-16T10:53:28.180Z,18.299999
2023-04-16T10:54:36.498Z,18.299999
2023-04-16T10:55:45.059Z,19.9
2023-04-16T10:56:53.401Z,19.9
2023-04-16T10:58:01.726Z,19.9
2023-04-16T10:59:10.539Z,36.599998
2023-04-16T11:00:18.599Z,36.599998
2023-04-16T11:01:26.952Z,36.599998
2023-04-16T11:02:35.775Z,26.200001
2023-04-16T11:03:44.037Z,26.200001
2023-04-16T11:04:52.289Z,26.200001
2023-04-16T11:06:00.726Z,22.700001
2023-04-16T11:07:09.055Z,22.700001
2023-04-16T11:08:17.399Z,22.700001
2023-04-16T11:09:25.971Z,7.4
2023-04-16T11:10:34.301Z,7.4
2023-04-16T11:11:42.628Z,7.4
2023-04-16T11:12:51.170Z,25.5
2023-04-16T11:13:59.515Z,25.5
2023-04-16T11:15:07.853Z,25.5
2023-04-16T11:16:16.434Z,6.8
2023-04-16T11:17:24.775Z,6.8
2023-04-16T11:18:33.117Z,6.8
2023-04-16T11:19:41.643Z,9.3
2023-04-16T11:20:50.035Z,9.3
2023-04-16T11:21:58.340Z,9.3
2023-04-16T11:23:06.882Z,11.4
2023-04-16T11:24:15.240Z,11.4
2023-04-16T11:25:23.597Z,11.4
2023-04-16T11:26:32.140Z,8.3
2023-04-16T11:27:40.466Z,8.3
2023-04-16T11:28:48.798Z,8.3
2023-04-16T11:29:57.331Z,1.4
2023-04-16T11:31:05.664Z,1.4
2023-04-16T11:32:13.994Z,1.4
2023-04-16T11:33:22.541Z,3.2
2023-04-16T11:34:30.911Z,3.2
2023-04-16T11:35:39.269Z,3.2
2023-04-16T11:36:47.818Z,1.4
2023-04-16T11:37:56.126Z,1.4
2023-04-16T11:39:04.464Z,1.4
2023-04-16T11:40:13.054Z,2.5
2023-04-16T11:41:21.379Z,2.5
2023-04-16T11:42:29.721Z,2.5
2023-04-16T11:43:38.251Z,5.2
2023-04-16T11:44:46.581Z,5.2
2023-04-16T11:45:54.946Z,5.2
2023-04-16T11:47:03.500Z,9.6
2023-04-16T11:48:11.829Z,9.6
2023-04-16T11:49:20.137Z,9.6
2023-04-16T11:50:28.677Z,5.8
2023-04-16T11:51:37.023Z,5.8
2023-04-16T11:52:45.390Z,5.8
2023-04-16T11:53:53.937Z,2.4
2023-04-16T11:55:02.229Z,2.4
2023-04-16T11:56:10.577Z,2.4
2023-04-16T11:57:19.113Z,4.1
2023-04-16T11:58:27.446Z,4.1
2023-04-16T11:59:35.794Z,4.1
2023-04-16T12:00:44.338Z,5.4
2023-04-16T12:01:52.694Z,5.4
2023-04-16T12:03:01.269Z,5.4
2023-04-16T12:04:09.685Z,3.9
2023-04-16T12:05:17.909Z,3.9
2023-04-16T12:06:26.191Z,3.9
2023-04-16T12:07:34.733Z,4.6
2023-04-16T12:08:43.099Z,4.6
2023-04-16T12:09:51.412Z,4.6
2023-04-16T12:10:59.942Z,3.9
2023-04-16T12:12:08.281Z,3.9
2023-04-16T12:13:16.632Z,3.9
2023-04-16T12:14:25.166Z,5.9
2023-04-16T12:15:33.510Z,5.9
2023-04-16T12:16:41.863Z,5.9
2023-04-16T12:17:50.421Z,5.7
2023-04-16T12:18:58.784Z,5.7
2023-04-16T12:20:07.154Z,5.7
2023-04-16T12:21:15.679Z,5.1
2023-04-16T12:22:24.004Z,5.1
2023-04-16T12:23:32.355Z,5.1
2023-04-16T12:24:40.922Z,5.3
2023-04-16T12:25:49.245Z,5.3
2023-04-16T12:26:57.636Z,5.3
2023-04-16T12:28:06.098Z,5.3
2023-04-16T12:29:14.439Z,5.3
2023-04-16T12:30:22.833Z,5.3
2023-04-16T12:31:31.329Z,4.7
2023-04-16T12:32:39.680Z,4.7
2023-04-16T12:33:47.986Z,4.7
2023-04-16T12:34:56.533Z,5.6
2023-04-16T12:36:04.857Z,5.6
2023-04-16T12:37:13.219Z,5.6
2023-04-16T12:38:23.661Z,5.2
2023-04-16T12:39:30.075Z,5.2
2023-04-16T12:40:38.421Z,5.2
2023-04-16T12:41:46.950Z,5.5
2023-04-16T12:42:55.283Z,5.5
2023-04-16T12:44:03.606Z,5.5
2023-04-16T12:45:12.162Z,4
2023-04-16T12:46:20.548Z,4
2023-04-16T12:47:28.866Z,4
2023-04-16T12:48:37.362Z,4.2
2023-04-16T12:49:45.713Z,4.2
2023-04-16T12:50:54.046Z,4.2
2023-04-16T12:52:02.646Z,4.1
2023-04-16T12:53:10.899Z,4.1
2023-04-16T12:54:19.230Z,4.1
2023-04-16T12:55:27.789Z,4.1
2023-04-16T12:56:36.267Z,4.1
2023-04-16T12:57:44.567Z,4.1
2023-04-16T12:58:53.125Z,3.4
2023-04-16T13:00:01.489Z,3.4
2023-04-16T13:01:09.822Z,3.4
2023-04-16T13:02:18.388Z,3.6
2023-04-16T13:03:26.725Z,3.6
2023-04-16T13:04:35.069Z,3.6
2023-04-16T13:05:43.532Z,3.2
2023-04-16T13:06:51.866Z,3.2
2023-04-16T13:08:00.199Z,3.2
2023-04-16T13:09:08.895Z,3.5
2023-04-16T13:10:17.063Z,3.5
2023-04-16T13:11:25.392Z,3.5
2023-04-16T13:12:33.985Z,2.7
2023-04-16T13:13:42.287Z,2.7
2023-04-16T13:14:50.618Z,2.7
2023-04-16T13:15:59.185Z,3.8
2023-04-16T13:17:07.490Z,3.8
2023-04-16T13:18:15.895Z,3.8
2023-04-16T13:19:24.497Z,2.8
2023-04-16T13:20:32.863Z,2.8
2023-04-16T13:21:41.201Z,2.8
2023-04-16T13:22:49.753Z,5.7
2023-04-16T13:23:58.096Z,5.7
2023-04-16T13:25:06.425Z,5.7
2023-04-16T13:26:14.984Z,9
2023-04-16T13:27:23.308Z,9
2023-04-16T13:28:31.673Z,9
2023-04-16T13:29:40.300Z,3.3
2023-04-16T13:30:48.604Z,3.3
2023-04-16T13:31:56.922Z,3.3
2023-04-16T13:33:05.476Z,2.8
2023-04-16T13:34:13.798Z,2.8
2023-04-16T13:35:22.134Z,2.8
2023-04-16T13:36:30.856Z,38.700001
2023-04-16T13:37:39.215Z,38.700001
2023-04-16T13:38:47.569Z,38.700001
2023-04-16T13:39:56.097Z,60.700001
2023-04-16T13:41:04.440Z,60.700001
2023-04-16T13:42:12.773Z,60.700001
2023-04-16T13:43:21.315Z,2.5
2023-04-16T13:44:29.711Z,2.5
2023-04-16T13:45:37.989Z,2.5
2023-04-16T13:46:46.550Z,5.3
2023-04-16T13:47:54.916Z,5.3
2023-04-16T13:49:03.210Z,5.3
2023-04-16T13:50:11.750Z,2.9
2023-04-16T13:51:20.078Z,2.9
2023-04-16T13:52:28.407Z,2.9
2023-04-16T13:53:36.966Z,4.1
2023-04-16T13:54:45.341Z,4.1
2023-04-16T13:55:53.686Z,4.1
2023-04-16T13:57:02.306Z,5.8
2023-04-16T13:58:10.638Z,5.8
2023-04-16T13:59:18.970Z,5.8
2023-04-16T14:00:27.582Z,11.3
2023-04-16T14:01:35.853Z,11.3
2023-04-16T14:02:44.300Z,11.3
2023-04-16T14:03:53.408Z,2.5
2023-04-16T14:05:02.255Z,2.5
2023-04-16T14:06:10.578Z,2.5
2023-04-16T14:07:19.131Z,3.9
2023-04-16T14:08:27.469Z,3.9
2023-04-16T14:09:35.809Z,3.9
2023-04-16T14:10:44.391Z,4.2
2023-04-16T14:11:52.733Z,4.2
2023-04-16T14:13:01.109Z,4.2
2023-04-16T14:14:09.658Z,2.6
2023-04-16T14:15:17.996Z,2.6
2023-04-16T14:16:26.442Z,2.6
2023-04-16T14:17:34.909Z,3.1
2023-04-16T14:18:43.250Z,3.1
2023-04-16T14:19:51.565Z,3.1
2023-04-16T14:21:00.129Z,4.8
2023-04-16T14:22:09.459Z,4.8
2023-04-16T14:23:16.772Z,4.8
2023-04-16T14:24:25.333Z,5
2023-04-16T14:25:33.661Z,5
2023-04-16T14:26:41.991Z,5
2023-04-16T14:27:50.533Z,5.1
2023-04-16T14:28:58.887Z,5.1
2023-04-16T14:30:07.208Z,5.1
2023-04-16T14:31:15.763Z,5.2
2023-04-16T14:32:24.118Z,5.2
2023-04-16T14:33:32.426Z,5.2
2023-04-16T14:34:40.963Z,4.2
2023-04-16T14:35:49.297Z,4.2
2023-04-16T14:36:57.665Z,4.2
2023-04-16T14:38:06.187Z,2.6
2023-04-16T14:39:14.519Z,2.6
2023-04-16T14:40:22.838Z,2.6
2023-04-16T14:41:31.394Z,3.1
2023-04-16T14:42:39.723Z,3.1
2023-04-16T14:43:48.060Z,3.1
2023-04-16T14:44:56.599Z,3.4
2023-04-16T14:46:05.093Z,3.4
2023-04-16T14:47:13.376Z,3.4
2023-04-16T14:48:21.944Z,7
2023-04-16T14:49:30.243Z,7
2023-04-16T14:50:38.566Z,7
2023-04-16T14:51:47.106Z,5.4
2023-04-16T14:52:55.445Z,5.4
2023-04-16T14:54:03.766Z,5.4
2023-04-16T14:55:12.306Z,9.1
2023-04-16T14:56:20.643Z,9.1
2023-04-16T14:57:28.964Z,9.1
2023-04-16T14:58:39.261Z,7.7
2023-04-16T14:59:45.896Z,7.7
2023-04-16T15:00:54.245Z,7.7
2023-04-16T15:02:02.815Z,4.3
2023-04-16T15:03:11.231Z,4.3
2023-04-16T15:04:19.622Z,4.3
2023-04-16T15:05:27.976Z,4
2023-04-16T15:39:17.114Z,0
2023-04-16T15:40:25.387Z,0
2023-04-16T15:41:33.707Z,0
2023-04-16T15:42:42.253Z,5.9
2023-04-16T15:43:50.595Z,5.9
2023-04-16T15:44:58.918Z,5.9
2023-04-16T15:46:07.484Z,3.9
2023-04-16T15:47:15.802Z,3.9
2023-04-16T15:48:24.134Z,3.9
2023-04-16T15:49:32.669Z,4.8
2023-04-16T15:50:41.016Z,4.8
2023-04-16T15:51:49.329Z,4.8
2023-04-16T15:52:57.874Z,4.7
2023-04-16T15:54:06.205Z,4.7
2023-04-16T15:55:14.577Z,4.7
2023-04-16T15:56:23.104Z,5.5
2023-04-16T15:57:31.471Z,5.5
2023-04-16T15:58:39.815Z,5.5
2023-04-16T15:59:59.491Z,7.9
2023-04-16T16:00:56.683Z,7.9
2023-04-16T16:02:05.759Z,7.9
2023-04-16T16:03:15.582Z,6.4
2023-04-16T16:04:23.920Z,6.4
2023-04-16T16:05:32.204Z,6.4
2023-04-16T16:06:40.746Z,6.6
2023-04-16T16:07:49.074Z,6.6
2023-04-16T16:08:57.416Z,6.6
2023-04-16T16:10:05.971Z,5.7
2023-04-16T16:11:14.332Z,5.7